sensor_id;sensor_type;location;lat;lon;timestamp;P1;durP1;ratioP1;P2;durP2;ratioP2
57443;SDS011;43289;52.962;6.196;2023-07-13T00:00:52;9.93;;;3.80;;
57443;SDS011;43289;52.962;6.196;2023-07-13T00:03:18;13.45;;;4.03;;
57443;SDS011;43289;52.962;6.196;2023-07-13T00:05:57;10.27;;;3.47;;
57443;SDS011;43289;52.962;6.196;2023-07-13T00:08:24;12.65;;;3.72;;
57443;SDS011;43289;52.962;6.196;2023-07-13T00:10:51;15.70;;;3.58;;
57443;SDS011;43289;52.962;6.196;2023-07-13T00:13:19;12.13;;;4.88;;
57443;SDS011;43289;52.962;6.196;2023-07-13T00:15:45;12.77;;;4.25;;
57443;SDS011;43289;52.962;6.196;2023-07-13T00:18:11;9.43;;;3.42;;
57443;SDS011;43289;52.962;6.196;2023-07-13T00:20:37;10.75;;;3.85;;
57443;SDS011;43289;52.962;6.196;2023-07-13T00:23:06;11.32;;;3.97;;
57443;SDS011;43289;52.962;6.196;2023-07-13T00:25:32;10.75;;;4.05;;
57443;SDS011;43289;52.962;6.196;2023-07-13T00:28:00;12.10;;;3.60;;
57443;SDS011;43289;52.962;6.196;2023-07-13T00:30:26;16.73;;;4.28;;
57443;SDS011;43289;52.962;6.196;2023-07-13T00:32:54;14.52;;;4.28;;
57443;SDS011;43289;52.962;6.196;2023-07-13T00:35:20;10.23;;;4.00;;
57443;SDS011;43289;52.962;6.196;2023-07-13T00:37:46;11.40;;;4.22;;
57443;SDS011;43289;52.962;6.196;2023-07-13T00:40:13;11.38;;;3.92;;
57443;SDS011;43289;52.962;6.196;2023-07-13T00:42:39;11.85;;;5.28;;
57443;SDS011;43289;52.962;6.196;2023-07-13T00:47:38;18.63;;;5.25;;
57443;SDS011;43289;52.962;6.196;2023-07-13T00:50:06;14.93;;;4.85;;
57443;SDS011;43289;52.962;6.196;2023-07-13T00:52:33;12.70;;;4.38;;
57443;SDS011;43289;52.962;6.196;2023-07-13T00:55:00;16.77;;;4.70;;
57443;SDS011;43289;52.962;6.196;2023-07-13T00:57:28;14.93;;;4.78;;
57443;SDS011;43289;52.962;6.196;2023-07-13T00:59:55;18.02;;;5.75;;
57443;SDS011;43289;52.962;6.196;2023-07-13T01:02:22;16.77;;;5.05;;
57443;SDS011;43289;52.962;6.196;2023-07-13T01:04:48;24.95;;;5.55;;
57443;SDS011;43289;52.962;6.196;2023-07-13T01:07:14;15.18;;;4.90;;
57443;SDS011;43289;52.962;6.196;2023-07-13T01:09:40;14.90;;;5.68;;
57443;SDS011;43289;52.962;6.196;2023-07-13T01:12:06;18.75;;;6.32;;
57443;SDS011;43289;52.962;6.196;2023-07-13T01:14:33;16.23;;;4.20;;
57443;SDS011;43289;52.962;6.196;2023-07-13T01:16:59;16.30;;;5.28;;
57443;SDS011;43289;52.962;6.196;2023-07-13T01:22:11;12.05;;;5.20;;
57443;SDS011;43289;52.962;6.196;2023-07-13T01:24:38;13.25;;;4.80;;
57443;SDS011;43289;52.962;6.196;2023-07-13T01:27:05;22.77;;;6.22;;
57443;SDS011;43289;52.962;6.196;2023-07-13T01:29:32;11.63;;;4.10;;
57443;SDS011;43289;52.962;6.196;2023-07-13T01:31:58;13.90;;;4.75;;
57443;SDS011;43289;52.962;6.196;2023-07-13T01:34:26;14.13;;;5.53;;
57443;SDS011;43289;52.962;6.196;2023-07-13T01:36:52;15.95;;;4.97;;
57443;SDS011;43289;52.962;6.196;2023-07-13T01:39:22;11.40;;;4.40;;
57443;SDS011;43289;52.962;6.196;2023-07-13T01:41:48;17.77;;;4.63;;
57443;SDS011;43289;52.962;6.196;2023-07-13T01:44:14;16.58;;;5.03;;
57443;SDS011;43289;52.962;6.196;2023-07-13T01:46:40;18.30;;;5.30;;
57443;SDS011;43289;52.962;6.196;2023-07-13T01:49:06;19.38;;;4.85;;
57443;SDS011;43289;52.962;6.196;2023-07-13T01:51:41;11.98;;;4.95;;
57443;SDS011;43289;52.962;6.196;2023-07-13T01:54:07;15.85;;;4.80;;
57443;SDS011;43289;52.962;6.196;2023-07-13T01:56:33;10.82;;;4.57;;
57443;SDS011;43289;52.962;6.196;2023-07-13T01:58:59;18.42;;;4.05;;
57443;SDS011;43289;52.962;6.196;2023-07-13T02:01:25;12.00;;;4.03;;
57443;SDS011;43289;52.962;6.196;2023-07-13T02:03:51;14.43;;;4.15;;
57443;SDS011;43289;52.962;6.196;2023-07-13T02:06:17;10.13;;;3.92;;
57443;SDS011;43289;52.962;6.196;2023-07-13T02:08:43;11.98;;;3.95;;
57443;SDS011;43289;52.962;6.196;2023-07-13T02:11:09;12.80;;;4.82;;
57443;SDS011;43289;52.962;6.196;2023-07-13T02:13:35;13.77;;;4.72;;
57443;SDS011;43289;52.962;6.196;2023-07-13T02:16:01;8.98;;;4.13;;
57443;SDS011;43289;52.962;6.196;2023-07-13T02:18:28;11.68;;;3.88;;
57443;SDS011;43289;52.962;6.196;2023-07-13T02:20:54;11.93;;;4.20;;
57443;SDS011;43289;52.962;6.196;2023-07-13T02:23:20;12.10;;;4.63;;
57443;SDS011;43289;52.962;6.196;2023-07-13T02:25:46;9.63;;;3.58;;
57443;SDS011;43289;52.962;6.196;2023-07-13T02:28:12;12.52;;;3.92;;
57443;SDS011;43289;52.962;6.196;2023-07-13T02:30:38;12.82;;;4.05;;
57443;SDS011;43289;52.962;6.196;2023-07-13T02:33:04;11.05;;;4.60;;
57443;SDS011;43289;52.962;6.196;2023-07-13T02:35:31;7.70;;;4.63;;
57443;SDS011;43289;52.962;6.196;2023-07-13T02:37:57;8.70;;;3.88;;
57443;SDS011;43289;52.962;6.196;2023-07-13T02:40:23;9.45;;;3.50;;
57443;SDS011;43289;52.962;6.196;2023-07-13T02:42:49;11.23;;;3.80;;
57443;SDS011;43289;52.962;6.196;2023-07-13T02:45:15;10.07;;;3.60;;
57443;SDS011;43289;52.962;6.196;2023-07-13T02:47:41;11.57;;;3.42;;
57443;SDS011;43289;52.962;6.196;2023-07-13T02:50:07;11.57;;;4.10;;
57443;SDS011;43289;52.962;6.196;2023-07-13T02:52:34;12.90;;;4.40;;
57443;SDS011;43289;52.962;6.196;2023-07-13T02:55:00;13.85;;;4.35;;
57443;SDS011;43289;52.962;6.196;2023-07-13T02:57:26;10.90;;;3.13;;
57443;SDS011;43289;52.962;6.196;2023-07-13T02:59:53;11.00;;;4.20;;
57443;SDS011;43289;52.962;6.196;2023-07-13T03:02:19;11.40;;;4.15;;
57443;SDS011;43289;52.962;6.196;2023-07-13T03:05:00;13.23;;;4.43;;
57443;SDS011;43289;52.962;6.196;2023-07-13T03:07:26;9.45;;;3.75;;
57443;SDS011;43289;52.962;6.196;2023-07-13T03:09:56;13.73;;;4.72;;
57443;SDS011;43289;52.962;6.196;2023-07-13T03:12:22;11.13;;;4.32;;
57443;SDS011;43289;52.962;6.196;2023-07-13T03:14:49;15.75;;;5.00;;
57443;SDS011;43289;52.962;6.196;2023-07-13T03:17:15;9.80;;;4.10;;
57443;SDS011;43289;52.962;6.196;2023-07-13T03:19:41;11.88;;;4.55;;
57443;SDS011;43289;52.962;6.196;2023-07-13T03:22:09;11.73;;;4.55;;
57443;SDS011;43289;52.962;6.196;2023-07-13T03:24:36;12.35;;;4.47;;
57443;SDS011;43289;52.962;6.196;2023-07-13T03:27:03;12.68;;;4.72;;
57443;SDS011;43289;52.962;6.196;2023-07-13T03:29:29;14.32;;;4.97;;
57443;SDS011;43289;52.962;6.196;2023-07-13T03:31:55;15.95;;;4.93;;
57443;SDS011;43289;52.962;6.196;2023-07-13T03:34:22;14.93;;;5.00;;
57443;SDS011;43289;52.962;6.196;2023-07-13T03:36:48;9.77;;;4.18;;
57443;SDS011;43289;52.962;6.196;2023-07-13T03:39:14;10.27;;;4.40;;
57443;SDS011;43289;52.962;6.196;2023-07-13T03:41:40;16.25;;;5.28;;
57443;SDS011;43289;52.962;6.196;2023-07-13T03:44:06;13.43;;;5.20;;
57443;SDS011;43289;52.962;6.196;2023-07-13T03:46:33;15.30;;;5.10;;
57443;SDS011;43289;52.962;6.196;2023-07-13T03:48:59;12.70;;;4.80;;
57443;SDS011;43289;52.962;6.196;2023-07-13T03:51:25;17.92;;;4.82;;
57443;SDS011;43289;52.962;6.196;2023-07-13T03:53:51;14.23;;;5.15;;
57443;SDS011;43289;52.962;6.196;2023-07-13T03:56:17;14.68;;;4.70;;
57443;SDS011;43289;52.962;6.196;2023-07-13T03:58:45;15.45;;;5.00;;
57443;SDS011;43289;52.962;6.196;2023-07-13T04:01:12;13.95;;;5.75;;
57443;SDS011;43289;52.962;6.196;2023-07-13T04:03:38;13.90;;;4.80;;
57443;SDS011;43289;52.962;6.196;2023-07-13T04:06:05;14.05;;;4.95;;
57443;SDS011;43289;52.962;6.196;2023-07-13T04:08:33;17.83;;;6.47;;
57443;SDS011;43289;52.962;6.196;2023-07-13T04:11:12;13.52;;;4.55;;
57443;SDS011;43289;52.962;6.196;2023-07-13T04:13:38;14.75;;;5.40;;
57443;SDS011;43289;52.962;6.196;2023-07-13T04:16:04;21.45;;;5.63;;
57443;SDS011;43289;52.962;6.196;2023-07-13T04:18:31;15.10;;;5.38;;
57443;SDS011;43289;52.962;6.196;2023-07-13T04:20:57;13.13;;;4.93;;
57443;SDS011;43289;52.962;6.196;2023-07-13T04:23:23;18.92;;;5.47;;
57443;SDS011;43289;52.962;6.196;2023-07-13T04:25:51;14.70;;;5.10;;
57443;SDS011;43289;52.962;6.196;2023-07-13T04:28:18;14.77;;;5.10;;
57443;SDS011;43289;52.962;6.196;2023-07-13T04:30:44;15.77;;;5.68;;
57443;SDS011;43289;52.962;6.196;2023-07-13T04:33:10;13.80;;;5.00;;
57443;SDS011;43289;52.962;6.196;2023-07-13T04:35:37;21.23;;;5.82;;
57443;SDS011;43289;52.962;6.196;2023-07-13T04:38:03;18.75;;;4.95;;
57443;SDS011;43289;52.962;6.196;2023-07-13T04:40:29;13.90;;;5.03;;
57443;SDS011;43289;52.962;6.196;2023-07-13T04:42:55;13.68;;;4.45;;
57443;SDS011;43289;52.962;6.196;2023-07-13T04:45:21;13.15;;;5.60;;
57443;SDS011;43289;52.962;6.196;2023-07-13T04:47:49;14.77;;;5.80;;
57443;SDS011;43289;52.962;6.196;2023-07-13T04:50:15;18.83;;;5.70;;
57443;SDS011;43289;52.962;6.196;2023-07-13T04:52:45;13.60;;;5.10;;
57443;SDS011;43289;52.962;6.196;2023-07-13T04:55:13;15.05;;;6.38;;
57443;SDS011;43289;52.962;6.196;2023-07-13T04:57:39;17.17;;;5.97;;
57443;SDS011;43289;52.962;6.196;2023-07-13T05:00:05;17.73;;;6.00;;
57443;SDS011;43289;52.962;6.196;2023-07-13T05:02:32;16.60;;;5.05;;
57443;SDS011;43289;52.962;6.196;2023-07-13T05:04:58;18.38;;;5.45;;
57443;SDS011;43289;52.962;6.196;2023-07-13T05:07:25;14.45;;;5.15;;
57443;SDS011;43289;52.962;6.196;2023-07-13T05:12:52;15.02;;;5.25;;
57443;SDS011;43289;52.962;6.196;2023-07-13T05:18:11;12.95;;;4.22;;
57443;SDS011;43289;52.962;6.196;2023-07-13T05:20:37;13.95;;;4.60;;
57443;SDS011;43289;52.962;6.196;2023-07-13T05:23:03;11.68;;;4.47;;
57443;SDS011;43289;52.962;6.196;2023-07-13T05:25:29;11.52;;;4.38;;
57443;SDS011;43289;52.962;6.196;2023-07-13T05:27:55;10.02;;;4.53;;
57443;SDS011;43289;52.962;6.196;2023-07-13T05:30:22;13.43;;;4.63;;
57443;SDS011;43289;52.962;6.196;2023-07-13T05:32:57;12.18;;;4.03;;
57443;SDS011;43289;52.962;6.196;2023-07-13T05:35:23;12.85;;;4.05;;
57443;SDS011;43289;52.962;6.196;2023-07-13T05:37:49;12.20;;;3.95;;
57443;SDS011;43289;52.962;6.196;2023-07-13T05:42:51;11.45;;;3.63;;
57443;SDS011;43289;52.962;6.196;2023-07-13T05:45:16;10.52;;;3.58;;
57443;SDS011;43289;52.962;6.196;2023-07-13T05:47:42;8.07;;;3.33;;
57443;SDS011;43289;52.962;6.196;2023-07-13T05:50:08;13.93;;;4.18;;
57443;SDS011;43289;52.962;6.196;2023-07-13T05:52:34;10.18;;;3.30;;
57443;SDS011;43289;52.962;6.196;2023-07-13T05:57:45;9.35;;;2.92;;
57443;SDS011;43289;52.962;6.196;2023-07-13T06:00:12;6.50;;;3.03;;
57443;SDS011;43289;52.962;6.196;2023-07-13T06:02:38;9.77;;;3.63;;
57443;SDS011;43289;52.962;6.196;2023-07-13T06:05:04;7.85;;;3.15;;
57443;SDS011;43289;52.962;6.196;2023-07-13T06:07:30;6.57;;;2.60;;
57443;SDS011;43289;52.962;6.196;2023-07-13T06:09:55;9.30;;;3.00;;
57443;SDS011;43289;52.962;6.196;2023-07-13T06:12:21;11.65;;;3.30;;
57443;SDS011;43289;52.962;6.196;2023-07-13T06:14:47;12.38;;;3.08;;
57443;SDS011;43289;52.962;6.196;2023-07-13T06:17:12;7.80;;;2.88;;
57443;SDS011;43289;52.962;6.196;2023-07-13T06:19:38;10.48;;;3.35;;
57443;SDS011;43289;52.962;6.196;2023-07-13T06:22:04;8.05;;;3.50;;
57443;SDS011;43289;52.962;6.196;2023-07-13T06:24:30;6.30;;;2.40;;
57443;SDS011;43289;52.962;6.196;2023-07-13T06:26:56;11.27;;;3.33;;
57443;SDS011;43289;52.962;6.196;2023-07-13T06:29:21;11.13;;;3.20;;
57443;SDS011;43289;52.962;6.196;2023-07-13T06:31:47;12.00;;;3.45;;
57443;SDS011;43289;52.962;6.196;2023-07-13T06:34:13;8.55;;;2.90;;
57443;SDS011;43289;52.962;6.196;2023-07-13T06:36:38;9.48;;;3.80;;
57443;SDS011;43289;52.962;6.196;2023-07-13T06:39:04;12.00;;;2.88;;
57443;SDS011;43289;52.962;6.196;2023-07-13T06:41:32;9.57;;;2.90;;
57443;SDS011;43289;52.962;6.196;2023-07-13T06:47:21;9.60;;;3.25;;
57443;SDS011;43289;52.962;6.196;2023-07-13T06:49:47;5.75;;;2.55;;
57443;SDS011;43289;52.962;6.196;2023-07-13T06:52:13;7.35;;;2.70;;
57443;SDS011;43289;52.962;6.196;2023-07-13T06:54:38;10.82;;;2.92;;
57443;SDS011;43289;52.962;6.196;2023-07-13T06:57:04;11.85;;;3.25;;
57443;SDS011;43289;52.962;6.196;2023-07-13T06:59:30;9.07;;;3.15;;
57443;SDS011;43289;52.962;6.196;2023-07-13T07:01:56;7.07;;;3.03;;
57443;SDS011;43289;52.962;6.196;2023-07-13T07:04:21;10.68;;;3.00;;
57443;SDS011;43289;52.962;6.196;2023-07-13T07:06:47;7.53;;;2.67;;
57443;SDS011;43289;52.962;6.196;2023-07-13T07:09:13;8.32;;;2.78;;
57443;SDS011;43289;52.962;6.196;2023-07-13T07:11:39;6.60;;;2.63;;
57443;SDS011;43289;52.962;6.196;2023-07-13T07:14:05;8.43;;;2.63;;
57443;SDS011;43289;52.962;6.196;2023-07-13T07:16:32;7.53;;;2.70;;
57443;SDS011;43289;52.962;6.196;2023-07-13T07:18:57;7.07;;;2.60;;
57443;SDS011;43289;52.962;6.196;2023-07-13T07:21:23;8.38;;;2.53;;
57443;SDS011;43289;52.962;6.196;2023-07-13T07:26:40;6.13;;;2.53;;
57443;SDS011;43289;52.962;6.196;2023-07-13T07:29:06;5.80;;;2.13;;
57443;SDS011;43289;52.962;6.196;2023-07-13T07:31:32;5.75;;;2.30;;
57443;SDS011;43289;52.962;6.196;2023-07-13T07:33:57;19.92;;;3.45;;
57443;SDS011;43289;52.962;6.196;2023-07-13T07:36:23;5.82;;;2.10;;
57443;SDS011;43289;52.962;6.196;2023-07-13T07:38:49;7.55;;;2.42;;
57443;SDS011;43289;52.962;6.196;2023-07-13T07:41:15;7.53;;;2.25;;
57443;SDS011;43289;52.962;6.196;2023-07-13T07:43:40;5.75;;;2.17;;
57443;SDS011;43289;52.962;6.196;2023-07-13T07:46:06;7.97;;;2.28;;
57443;SDS011;43289;52.962;6.196;2023-07-13T07:48:31;9.93;;;2.50;;
57443;SDS011;43289;52.962;6.196;2023-07-13T07:50:57;5.72;;;2.20;;
57443;SDS011;43289;52.962;6.196;2023-07-13T07:53:23;5.15;;;1.80;;
57443;SDS011;43289;52.962;6.196;2023-07-13T07:55:49;5.60;;;1.92;;
57443;SDS011;43289;52.962;6.196;2023-07-13T07:58:15;7.93;;;2.13;;
57443;SDS011;43289;52.962;6.196;2023-07-13T08:04:21;5.18;;;2.00;;
57443;SDS011;43289;52.962;6.196;2023-07-13T08:06:47;6.93;;;2.40;;
57443;SDS011;43289;52.962;6.196;2023-07-13T08:09:13;5.30;;;1.83;;
57443;SDS011;43289;52.962;6.196;2023-07-13T08:11:38;5.47;;;2.38;;
57443;SDS011;43289;52.962;6.196;2023-07-13T08:14:04;5.70;;;2.50;;
57443;SDS011;43289;52.962;6.196;2023-07-13T08:16:30;11.02;;;2.55;;
57443;SDS011;43289;52.962;6.196;2023-07-13T08:18:57;13.95;;;3.13;;
57443;SDS011;43289;52.962;6.196;2023-07-13T08:21:23;6.28;;;2.47;;
57443;SDS011;43289;52.962;6.196;2023-07-13T08:23:49;12.15;;;3.78;;
57443;SDS011;43289;52.962;6.196;2023-07-13T08:26:15;15.18;;;4.13;;
57443;SDS011;43289;52.962;6.196;2023-07-13T08:28:40;7.53;;;3.40;;
57443;SDS011;43289;52.962;6.196;2023-07-13T08:31:07;12.95;;;2.88;;
57443;SDS011;43289;52.962;6.196;2023-07-13T08:33:33;10.38;;;4.03;;
57443;SDS011;43289;52.962;6.196;2023-07-13T08:36:00;6.25;;;2.97;;
57443;SDS011;43289;52.962;6.196;2023-07-13T08:38:26;6.07;;;2.67;;
57443;SDS011;43289;52.962;6.196;2023-07-13T08:40:53;6.97;;;2.88;;
57443;SDS011;43289;52.962;6.196;2023-07-13T08:43:28;6.70;;;2.95;;
57443;SDS011;43289;52.962;6.196;2023-07-13T08:46:09;6.53;;;3.40;;
57443;SDS011;43289;52.962;6.196;2023-07-13T08:48:56;8.63;;;2.90;;
57443;SDS011;43289;52.962;6.196;2023-07-13T08:56:44;5.00;;;3.20;;
57443;SDS011;43289;52.962;6.196;2023-07-13T08:59:14;8.77;;;3.80;;
57443;SDS011;43289;52.962;6.196;2023-07-13T09:04:23;7.90;;;3.83;;
57443;SDS011;43289;52.962;6.196;2023-07-13T09:14:56;7.57;;;3.55;;
57443;SDS011;43289;52.962;6.196;2023-07-13T09:17:28;5.78;;;3.75;;
57443;SDS011;43289;52.962;6.196;2023-07-13T09:20:02;7.32;;;3.03;;
57443;SDS011;43289;52.962;6.196;2023-07-13T09:22:37;8.57;;;2.92;;
57443;SDS011;43289;52.962;6.196;2023-07-13T09:25:06;5.13;;;3.05;;
57443;SDS011;43289;52.962;6.196;2023-07-13T09:27:52;5.75;;;2.88;;
57443;SDS011;43289;52.962;6.196;2023-07-13T09:31:23;6.20;;;2.35;;
57443;SDS011;43289;52.962;6.196;2023-07-13T09:33:28;7.93;;;3.22;;
57443;SDS011;43289;52.962;6.196;2023-07-13T09:35:58;4.95;;;2.70;;
57443;SDS011;43289;52.962;6.196;2023-07-13T09:38:24;8.05;;;2.97;;
57443;SDS011;43289;52.962;6.196;2023-07-13T09:43:25;7.05;;;3.00;;
57443;SDS011;43289;52.962;6.196;2023-07-13T09:45:53;7.90;;;3.40;;
57443;SDS011;43289;52.962;6.196;2023-07-13T09:48:20;7.47;;;3.05;;
57443;SDS011;43289;52.962;6.196;2023-07-13T09:50:46;5.80;;;3.28;;
57443;SDS011;43289;52.962;6.196;2023-07-13T09:53:16;6.82;;;2.83;;
57443;SDS011;43289;52.962;6.196;2023-07-13T09:55:44;3.40;;;1.98;;
57443;SDS011;43289;52.962;6.196;2023-07-13T10:00:40;3.50;;;1.95;;
57443;SDS011;43289;52.962;6.196;2023-07-13T10:03:19;3.42;;;1.70;;
57443;SDS011;43289;52.962;6.196;2023-07-13T10:05:47;3.90;;;2.17;;
57443;SDS011;43289;52.962;6.196;2023-07-13T10:08:24;8.73;;;2.33;;
57443;SDS011;43289;52.962;6.196;2023-07-13T10:11:08;8.55;;;2.47;;
57443;SDS011;43289;52.962;6.196;2023-07-13T10:13:44;8.27;;;2.70;;
57443;SDS011;43289;52.962;6.196;2023-07-13T10:16:20;6.07;;;2.40;;
57443;SDS011;43289;52.962;6.196;2023-07-13T10:21:20;5.47;;;2.22;;
57443;SDS011;43289;52.962;6.196;2023-07-13T10:23:48;5.78;;;3.17;;
57443;SDS011;43289;52.962;6.196;2023-07-13T10:26:23;6.55;;;3.00;;
57443;SDS011;43289;52.962;6.196;2023-07-13T10:28:56;6.43;;;2.70;;
57443;SDS011;43289;52.962;6.196;2023-07-13T10:31:26;6.07;;;2.60;;
57443;SDS011;43289;52.962;6.196;2023-07-13T10:33:51;6.50;;;2.63;;
57443;SDS011;43289;52.962;6.196;2023-07-13T10:36:21;7.25;;;2.50;;
57443;SDS011;43289;52.962;6.196;2023-07-13T10:38:59;5.97;;;2.42;;
57443;SDS011;43289;52.962;6.196;2023-07-13T10:41:28;10.77;;;2.72;;
57443;SDS011;43289;52.962;6.196;2023-07-13T10:43:58;10.27;;;3.38;;
57443;SDS011;43289;52.962;6.196;2023-07-13T10:46:26;4.55;;;2.20;;
57443;SDS011;43289;52.962;6.196;2023-07-13T10:48:54;5.43;;;1.88;;
57443;SDS011;43289;52.962;6.196;2023-07-13T10:51:25;5.10;;;2.20;;
57443;SDS011;43289;52.962;6.196;2023-07-13T10:54:37;5.03;;;2.03;;
57443;SDS011;43289;52.962;6.196;2023-07-13T10:56:44;3.88;;;2.08;;
57443;SDS011;43289;52.962;6.196;2023-07-13T10:59:13;4.38;;;1.92;;
57443;SDS011;43289;52.962;6.196;2023-07-13T11:01:50;4.07;;;1.60;;
57443;SDS011;43289;52.962;6.196;2023-07-13T11:04:21;4.30;;;1.98;;
57443;SDS011;43289;52.962;6.196;2023-07-13T11:06:50;7.13;;;1.90;;
57443;SDS011;43289;52.962;6.196;2023-07-13T11:14:43;5.15;;;1.70;;
57443;SDS011;43289;52.962;6.196;2023-07-13T11:17:36;4.28;;;1.90;;
57443;SDS011;43289;52.962;6.196;2023-07-13T11:25:32;4.22;;;1.52;;
57443;SDS011;43289;52.962;6.196;2023-07-13T11:35:51;7.10;;;2.95;;
57443;SDS011;43289;52.962;6.196;2023-07-13T11:38:30;4.47;;;1.88;;
57443;SDS011;43289;52.962;6.196;2023-07-13T11:40:58;6.32;;;1.83;;
57443;SDS011;43289;52.962;6.196;2023-07-13T11:43:28;6.82;;;1.50;;
57443;SDS011;43289;52.962;6.196;2023-07-13T11:45:54;2.53;;;1.40;;
57443;SDS011;43289;52.962;6.196;2023-07-13T11:50:54;4.10;;;1.70;;
57443;SDS011;43289;52.962;6.196;2023-07-13T11:53:21;4.28;;;1.60;;
57443;SDS011;43289;52.962;6.196;2023-07-13T11:55:48;7.82;;;1.95;;
57443;SDS011;43289;52.962;6.196;2023-07-13T11:58:16;6.00;;;2.67;;
57443;SDS011;43289;52.962;6.196;2023-07-13T12:00:43;5.30;;;1.90;;
57443;SDS011;43289;52.962;6.196;2023-07-13T12:03:10;6.47;;;2.60;;
57443;SDS011;43289;52.962;6.196;2023-07-13T12:05:38;3.20;;;1.55;;
57443;SDS011;43289;52.962;6.196;2023-07-13T12:08:22;5.97;;;2.42;;
57443;SDS011;43289;52.962;6.196;2023-07-13T12:10:48;3.85;;;1.40;;
57443;SDS011;43289;52.962;6.196;2023-07-13T12:13:21;3.83;;;1.77;;
57443;SDS011;43289;52.962;6.196;2023-07-13T12:15:47;4.85;;;1.58;;
57443;SDS011;43289;52.962;6.196;2023-07-13T12:18:20;4.60;;;1.48;;
57443;SDS011;43289;52.962;6.196;2023-07-13T12:20:47;4.05;;;1.65;;
57443;SDS011;43289;52.962;6.196;2023-07-13T12:25:46;4.65;;;1.98;;
57443;SDS011;43289;52.962;6.196;2023-07-13T12:28:22;6.10;;;1.67;;
57443;SDS011;43289;52.962;6.196;2023-07-13T12:31:31;6.82;;;1.60;;
57443;SDS011;43289;52.962;6.196;2023-07-13T12:34:06;4.57;;;1.60;;
57443;SDS011;43289;52.962;6.196;2023-07-13T12:36:37;2.80;;;1.30;;
57443;SDS011;43289;52.962;6.196;2023-07-13T12:39:49;5.18;;;1.77;;
57443;SDS011;43289;52.962;6.196;2023-07-13T12:42:09;3.38;;;1.48;;
57443;SDS011;43289;52.962;6.196;2023-07-13T12:44:39;3.83;;;1.40;;
57443;SDS011;43289;52.962;6.196;2023-07-13T12:47:08;5.43;;;1.95;;
57443;SDS011;43289;52.962;6.196;2023-07-13T12:49:40;5.75;;;1.83;;
57443;SDS011;43289;52.962;6.196;2023-07-13T12:52:10;2.67;;;1.20;;
57443;SDS011;43289;52.962;6.196;2023-07-13T12:54:40;3.33;;;1.27;;
57443;SDS011;43289;52.962;6.196;2023-07-13T12:57:05;4.90;;;1.52;;
57443;SDS011;43289;52.962;6.196;2023-07-13T12:59:39;6.18;;;2.03;;
57443;SDS011;43289;52.962;6.196;2023-07-13T13:02:21;3.15;;;1.70;;
57443;SDS011;43289;52.962;6.196;2023-07-13T13:04:55;3.97;;;1.55;;
57443;SDS011;43289;52.962;6.196;2023-07-13T13:07:22;3.22;;;1.63;;
57443;SDS011;43289;52.962;6.196;2023-07-13T13:09:49;2.75;;;1.23;;
57443;SDS011;43289;52.962;6.196;2023-07-13T13:12:14;3.70;;;1.60;;
57443;SDS011;43289;52.962;6.196;2023-07-13T13:14:42;4.13;;;1.60;;
57443;SDS011;43289;52.962;6.196;2023-07-13T13:17:16;4.07;;;1.20;;
57443;SDS011;43289;52.962;6.196;2023-07-13T13:19:44;4.15;;;1.30;;
57443;SDS011;43289;52.962;6.196;2023-07-13T13:22:10;4.95;;;1.60;;
57443;SDS011;43289;52.962;6.196;2023-07-13T13:24:36;5.03;;;1.35;;
57443;SDS011;43289;52.962;6.196;2023-07-13T13:27:02;4.53;;;1.50;;
57443;SDS011;43289;52.962;6.196;2023-07-13T13:29:31;3.40;;;1.40;;
57443;SDS011;43289;52.962;6.196;2023-07-13T13:31:57;4.00;;;1.50;;
57443;SDS011;43289;52.962;6.196;2023-07-13T13:34:24;2.85;;;1.50;;
57443;SDS011;43289;52.962;6.196;2023-07-13T13:36:50;3.72;;;1.70;;
57443;SDS011;43289;52.962;6.196;2023-07-13T13:39:21;4.10;;;2.10;;
57443;SDS011;43289;52.962;6.196;2023-07-13T13:42:08;7.15;;;1.95;;
57443;SDS011;43289;52.962;6.196;2023-07-13T13:44:35;7.10;;;1.83;;
57443;SDS011;43289;52.962;6.196;2023-07-13T13:47:01;4.20;;;2.15;;
57443;SDS011;43289;52.962;6.196;2023-07-13T13:49:27;3.90;;;2.10;;
57443;SDS011;43289;52.962;6.196;2023-07-13T13:51:55;6.30;;;2.20;;
57443;SDS011;43289;52.962;6.196;2023-07-13T13:54:22;4.35;;;1.67;;
57443;SDS011;43289;52.962;6.196;2023-07-13T13:56:49;5.63;;;1.77;;
57443;SDS011;43289;52.962;6.196;2023-07-13T13:59:16;5.60;;;2.22;;
57443;SDS011;43289;52.962;6.196;2023-07-13T14:01:43;5.78;;;2.03;;
57443;SDS011;43289;52.962;6.196;2023-07-13T14:04:17;3.75;;;1.83;;
57443;SDS011;43289;52.962;6.196;2023-07-13T14:06:44;5.10;;;1.70;;
57443;SDS011;43289;52.962;6.196;2023-07-13T14:09:11;8.20;;;3.08;;
57443;SDS011;43289;52.962;6.196;2023-07-13T14:11:38;5.22;;;1.92;;
57443;SDS011;43289;52.962;6.196;2023-07-13T14:14:08;5.72;;;1.85;;
57443;SDS011;43289;52.962;6.196;2023-07-13T14:16:36;3.42;;;1.58;;
57443;SDS011;43289;52.962;6.196;2023-07-13T14:19:02;4.20;;;1.88;;
57443;SDS011;43289;52.962;6.196;2023-07-13T14:21:28;5.40;;;1.90;;
57443;SDS011;43289;52.962;6.196;2023-07-13T14:23:54;4.80;;;1.80;;
57443;SDS011;43289;52.962;6.196;2023-07-13T14:26:24;3.28;;;1.63;;
57443;SDS011;43289;52.962;6.196;2023-07-13T14:28:55;2.75;;;1.60;;
57443;SDS011;43289;52.962;6.196;2023-07-13T14:31:23;3.47;;;1.50;;
57443;SDS011;43289;52.962;6.196;2023-07-13T14:33:53;5.43;;;1.90;;
57443;SDS011;43289;52.962;6.196;2023-07-13T14:36:39;4.63;;;1.58;;
57443;SDS011;43289;52.962;6.196;2023-07-13T14:41:44;5.45;;;2.33;;
57443;SDS011;43289;52.962;6.196;2023-07-13T14:44:14;5.03;;;2.13;;
57443;SDS011;43289;52.962;6.196;2023-07-13T14:46:41;7.00;;;2.38;;
57443;SDS011;43289;52.962;6.196;2023-07-13T14:49:12;7.80;;;2.67;;
57443;SDS011;43289;52.962;6.196;2023-07-13T14:51:43;4.95;;;1.60;;
57443;SDS011;43289;52.962;6.196;2023-07-13T14:54:09;3.38;;;1.50;;
57443;SDS011;43289;52.962;6.196;2023-07-13T14:56:35;4.43;;;1.73;;
57443;SDS011;43289;52.962;6.196;2023-07-13T14:59:01;4.72;;;1.98;;
57443;SDS011;43289;52.962;6.196;2023-07-13T15:04:16;5.90;;;1.73;;
57443;SDS011;43289;52.962;6.196;2023-07-13T15:06:53;6.38;;;1.90;;
57443;SDS011;43289;52.962;6.196;2023-07-13T15:09:21;5.10;;;1.88;;
57443;SDS011;43289;52.962;6.196;2023-07-13T15:11:49;5.38;;;2.25;;
57443;SDS011;43289;52.962;6.196;2023-07-13T15:14:15;5.80;;;2.20;;
57443;SDS011;43289;52.962;6.196;2023-07-13T15:16:41;5.95;;;2.33;;
57443;SDS011;43289;52.962;6.196;2023-07-13T15:19:09;7.07;;;2.20;;
57443;SDS011;43289;52.962;6.196;2023-07-13T15:21:35;4.85;;;1.85;;
57443;SDS011;43289;52.962;6.196;2023-07-13T15:24:02;6.25;;;2.00;;
57443;SDS011;43289;52.962;6.196;2023-07-13T15:26:28;5.07;;;2.00;;
57443;SDS011;43289;52.962;6.196;2023-07-13T15:28:55;11.02;;;2.33;;
57443;SDS011;43289;52.962;6.196;2023-07-13T15:31:22;5.28;;;1.98;;
57443;SDS011;43289;52.962;6.196;2023-07-13T15:33:49;4.68;;;1.70;;
57443;SDS011;43289;52.962;6.196;2023-07-13T15:36:16;7.15;;;2.47;;
57443;SDS011;43289;52.962;6.196;2023-07-13T15:38:43;4.13;;;2.25;;
57443;SDS011;43289;52.962;6.196;2023-07-13T15:41:17;7.68;;;2.08;;
57443;SDS011;43289;52.962;6.196;2023-07-13T15:43:45;6.70;;;2.47;;
57443;SDS011;43289;52.962;6.196;2023-07-13T15:46:12;5.55;;;2.00;;
57443;SDS011;43289;52.962;6.196;2023-07-13T15:48:37;6.00;;;1.90;;
57443;SDS011;43289;52.962;6.196;2023-07-13T15:51:04;7.13;;;2.08;;
57443;SDS011;43289;52.962;6.196;2023-07-13T15:53:32;4.60;;;2.05;;
57443;SDS011;43289;52.962;6.196;2023-07-13T15:55:58;5.45;;;2.30;;
57443;SDS011;43289;52.962;6.196;2023-07-13T15:58:25;5.13;;;1.80;;
57443;SDS011;43289;52.962;6.196;2023-07-13T16:00:53;6.78;;;1.92;;
57443;SDS011;43289;52.962;6.196;2023-07-13T16:03:20;4.53;;;1.90;;
57443;SDS011;43289;52.962;6.196;2023-07-13T16:05:46;6.38;;;2.72;;
57443;SDS011;43289;52.962;6.196;2023-07-13T16:08:23;6.20;;;2.20;;